Time;durP1;ratioP1;P1;durP2;ratioP2;P2;SDS_P1;SDS_P2;PMS_P1;PMS_P2;Temp;Humidity;BMP_temperature;BMP_pressure;BME280_temperature;BME280_humidity;BME280_pressure;Samples;Min_cycle;Max_cycle;Signal;HPM_P1;HPM_P2
2022/01/05 00:01:22;;;;;;;7.70;6.50;;;2.60;99.90;;;;;;5096588;28;20289;-70
2022/01/05 00:03:48;;;;;;;8.53;7.17;;;2.50;99.90;;;;;;5096583;28;20200;-70
2022/01/05 00:06:15;;;;;;;8.07;6.63;;;2.60;99.90;;;;;;5096559;28;20257;-71
2022/01/05 00:08:43;;;;;;;7.80;6.33;;;2.60;99.90;;;;;;5096622;28;20226;-70
2022/01/05 00:11:10;;;;;;;7.83;6.23;;;2.60;99.90;;;;;;5096361;28;20196;-70
2022/01/05 00:13:37;;;;;;;8.47;6.83;;;2.60;99.90;;;;;;5096371;28;20200;-70
2022/01/05 00:16:04;;;;;;;8.47;6.60;;;2.60;99.90;;;;;;5096244;28;20228;-70
2022/01/05 00:18:32;;;;;;;8.53;6.57;;;2.70;99.90;;;;;;5096260;28;20196;-70
2022/01/05 00:20:59;;;;;;;17.77;10.03;;;2.70;99.90;;;;;;5096078;28;20242;-71
2022/01/05 00:23:26;;;;;;;7.40;6.23;;;2.70;99.90;;;;;;5096527;28;20315;-70
2022/01/05 00:25:54;;;;;;;7.27;5.87;;;2.70;99.90;;;;;;5096086;28;20200;-70
2022/01/05 00:28:21;;;;;;;7.47;6.00;;;2.80;99.90;;;;;;5095957;28;20266;-71
2022/01/05 00:30:48;;;;;;;7.77;6.30;;;2.70;99.90;;;;;;5096043;28;20201;-71
2022/01/05 00:33:15;;;;;;;9.53;6.57;;;2.80;99.90;;;;;;5096173;28;20196;-71
2022/01/05 00:35:42;;;;;;;7.40;6.43;;;2.80;99.90;;;;;;5095700;28;20687;-70
2022/01/05 00:38:08;;;;;;;9.07;7.40;;;2.80;99.90;;;;;;5095819;28;20195;-70
2022/01/05 00:40:35;;;;;;;8.77;7.03;;;2.80;99.90;;;;;;5096938;28;20601;-70
2022/01/05 00:43:03;;;;;;;8.13;6.53;;;2.90;99.90;;;;;;5095908;28;20208;-70
2022/01/05 00:45:30;;;;;;;9.10;6.83;;;2.90;99.90;;;;;;5095699;28;20205;-71
2022/01/05 00:47:56;;;;;;;9.10;7.40;;;2.90;99.90;;;;;;5095552;28;20196;-71
2022/01/05 00:50:23;;;;;;;8.87;7.17;;;2.90;99.90;;;;;;5095494;28;20200;-70
2022/01/05 00:52:50;;;;;;;11.73;8.87;;;3.00;99.90;;;;;;5095257;28;20208;-71
2022/01/05 00:55:16;;;;;;;10.47;8.63;;;3.00;99.90;;;;;;5095238;28;20602;-71
2022/01/05 00:57:43;;;;;;;10.57;8.43;;;3.00;99.90;;;;;;5094730;28;20207;-70
2022/01/05 01:00:12;;;;;;;9.27;7.33;;;3.00;99.90;;;;;;5095063;28;20197;-70
2022/01/05 01:02:39;;;;;;;15.80;12.10;;;3.00;99.90;;;;;;5094870;28;20749;-70
2022/01/05 01:05:06;;;;;;;13.37;11.13;;;3.10;99.90;;;;;;5095431;28;20196;-70
2022/01/05 01:07:33;;;;;;;13.50;8.80;;;3.10;99.90;;;;;;5095310;28;20208;-70
2022/01/05 01:09:59;;;;;;;10.43;8.07;;;3.10;99.90;;;;;;5095011;28;20572;-70
2022/01/05 01:12:26;;;;;;;11.50;9.23;;;3.20;99.90;;;;;;5095341;28;20696;-70
2022/01/05 01:14:53;;;;;;;11.37;8.57;;;3.20;99.90;;;;;;5094828;28;20676;-71
2022/01/05 01:17:22;;;;;;;12.77;10.27;;;3.20;99.90;;;;;;5095090;28;20232;-70
2022/01/05 01:19:48;;;;;;;10.70;7.97;;;3.20;99.90;;;;;;5095067;28;20277;-70
2022/01/05 01:22:15;;;;;;;10.93;8.20;;;3.20;99.90;;;;;;5094830;28;20200;-70
2022/01/05 01:24:42;;;;;;;11.73;8.77;;;3.20;99.90;;;;;;5094954;28;20250;-70
2022/01/05 01:27:08;;;;;;;11.00;7.67;;;3.20;99.90;;;;;;5094679;28;20200;-70
2022/01/05 01:29:35;;;;;;;9.23;7.70;;;3.20;99.90;;;;;;5094475;28;20598;-69
2022/01/05 01:32:04;;;;;;;9.17;7.70;;;3.20;99.90;;;;;;5094780;28;20201;-70
2022/01/05 01:34:32;;;;;;;9.90;8.10;;;3.20;99.90;;;;;;5094821;28;20199;-71
2022/01/05 01:36:58;;;;;;;18.77;14.10;;;3.30;99.90;;;;;;5094469;28;20273;-70
2022/01/05 01:39:25;;;;;;;10.80;8.83;;;3.20;99.90;;;;;;5094510;28;20245;-70
2022/01/05 01:41:52;;;;;;;10.27;8.00;;;3.30;99.90;;;;;;5094466;28;20270;-70
2022/01/05 01:44:18;;;;;;;11.60;9.73;;;3.30;99.90;;;;;;5094505;28;20197;-70
2022/01/05 01:46:45;;;;;;;10.87;9.03;;;3.30;99.90;;;;;;5094504;28;20197;-71
2022/01/05 01:49:12;;;;;;;8.87;7.80;;;3.40;99.90;;;;;;5094397;28;20207;-69
2022/01/05 01:51:40;;;;;;;9.67;7.97;;;3.40;99.90;;;;;;5094290;28;20255;-69
2022/01/05 01:54:08;;;;;;;8.87;7.53;;;3.50;99.90;;;;;;5094576;28;20253;-69
2022/01/05 01:56:36;;;;;;;8.37;6.63;;;3.50;99.90;;;;;;5098030;28;20228;-70
2022/01/05 01:59:03;;;;;;;9.70;8.07;;;3.50;99.90;;;;;;5100291;28;20197;-70
2022/01/05 02:01:30;;;;;;;8.27;7.20;;;3.50;99.90;;;;;;5102303;28;20233;-70
2022/01/05 02:03:57;;;;;;;9.00;7.67;;;3.50;99.90;;;;;;5101628;28;20207;-71
2022/01/05 02:06:24;;;;;;;7.90;7.10;;;3.50;99.90;;;;;;5101247;28;20206;-70
2022/01/05 02:08:52;;;;;;;9.43;7.40;;;3.50;99.90;;;;;;5101164;28;20204;-70
2022/01/05 02:11:19;;;;;;;8.57;6.97;;;3.50;99.90;;;;;;5095094;28;20199;-70
2022/01/05 02:13:46;;;;;;;7.70;6.80;;;3.60;99.90;;;;;;5094535;28;20285;-70
2022/01/05 02:16:19;;;;;;;7.30;6.47;;;3.60;99.90;;;;;;5094127;28;20213;-70
2022/01/05 02:19:01;;;;;;;7.50;5.50;;;3.60;99.90;;;;;;5093901;28;20203;-70
2022/01/05 02:21:31;;;;;;;6.70;5.80;;;3.60;99.90;;;;;;5094161;28;20210;-70
2022/01/05 02:23:58;;;;;;;7.23;6.07;;;3.70;99.90;;;;;;5093996;28;20200;-70
2022/01/05 02:26:25;;;;;;;6.33;5.30;;;3.60;99.90;;;;;;5093949;28;20199;-70
2022/01/05 02:28:52;;;;;;;6.13;5.07;;;3.70;99.90;;;;;;5094093;28;20203;-71
2022/01/05 02:31:19;;;;;;;6.27;5.00;;;3.70;99.90;;;;;;5095763;28;20250;-70
2022/01/05 02:33:46;;;;;;;7.90;4.70;;;3.70;99.90;;;;;;5093942;28;20199;-70
2022/01/05 02:36:17;;;;;;;5.10;4.60;;;3.70;99.90;;;;;;5094154;28;20289;-70
2022/01/05 02:38:45;;;;;;;4.30;3.90;;;3.70;99.90;;;;;;5093701;28;20571;-69
2022/01/05 02:41:12;;;;;;;4.70;4.20;;;3.70;99.90;;;;;;5093790;28;20198;-70
2022/01/05 02:43:41;;;;;;;4.97;4.10;;;3.70;99.90;;;;;;5093625;28;20193;-70
2022/01/05 02:46:10;;;;;;;3.90;3.27;;;3.70;99.90;;;;;;5093780;28;20223;-70
2022/01/05 02:48:37;;;;;;;4.93;4.47;;;3.80;99.90;;;;;;5093772;28;20196;-71
2022/01/05 02:51:05;;;;;;;5.70;5.10;;;3.80;99.90;;;;;;5093586;28;20200;-70
2022/01/05 02:53:32;;;;;;;4.50;3.37;;;3.80;99.90;;;;;;5093737;28;20291;-70
2022/01/05 02:56:00;;;;;;;4.43;3.10;;;3.90;99.90;;;;;;5093569;28;20207;-71
2022/01/05 02:58:27;;;;;;;72.47;13.43;;;3.90;99.90;;;;;;5093607;28;20200;-70
2022/01/05 03:00:54;;;;;;;4.50;4.00;;;3.90;99.90;;;;;;5093631;28;20229;-69
2022/01/05 03:03:21;;;;;;;3.60;3.23;;;3.90;99.90;;;;;;5093953;28;20197;-70
2022/01/05 03:05:47;;;;;;;3.37;2.97;;;3.90;99.90;;;;;;5094056;28;20203;-69
2022/01/05 03:08:14;;;;;;;3.50;3.20;;;3.90;99.90;;;;;;5096977;28;20209;-70
2022/01/05 03:10:41;;;;;;;5.70;5.20;;;3.90;99.90;;;;;;5097583;28;20204;-70
2022/01/05 03:13:09;;;;;;;4.97;2.87;;;4.00;99.90;;;;;;5093410;28;20201;-70
2022/01/05 03:15:36;;;;;;;3.23;2.93;;;3.90;99.90;;;;;;5095304;28;20206;-70
2022/01/05 03:18:03;;;;;;;5.00;3.20;;;4.00;99.90;;;;;;5097773;28;20317;-70
2022/01/05 03:20:30;;;;;;;3.83;3.50;;;4.00;99.90;;;;;;5097495;28;20284;-70
2022/01/05 03:22:57;;;;;;;3.47;2.80;;;4.00;99.90;;;;;;5100828;28;20203;-70
2022/01/05 03:25:24;;;;;;;3.27;2.67;;;4.00;99.90;;;;;;5100005;28;20327;-70
2022/01/05 03:27:54;;;;;;;3.03;2.63;;;4.00;99.90;;;;;;5098123;28;20207;-70
2022/01/05 03:30:25;;;;;;;3.10;2.70;;;4.00;99.90;;;;;;5099184;28;20582;-70
2022/01/05 03:33:08;;;;;;;2.90;2.60;;;4.00;99.90;;;;;;5099510;28;20198;-70
2022/01/05 03:35:37;;;;;;;2.97;2.67;;;4.00;99.90;;;;;;5097119;28;20207;-71
2022/01/05 03:38:05;;;;;;;2.73;2.50;;;4.10;99.90;;;;;;5097310;28;20225;-70
2022/01/05 03:40:34;;;;;;;2.90;2.60;;;4.10;99.90;;;;;;5096988;28;20790;-70
2022/01/05 03:43:01;;;;;;;2.70;2.50;;;4.10;99.90;;;;;;5097318;28;20204;-70
2022/01/05 03:45:29;;;;;;;3.57;3.10;;;4.10;99.90;;;;;;5096979;28;20254;-71
2022/01/05 03:47:55;;;;;;;3.83;2.80;;;4.10;99.90;;;;;;5096456;28;20201;-70
2022/01/05 03:50:22;;;;;;;3.07;2.77;;;4.10;99.90;;;;;;5096832;28;20250;-70
2022/01/05 03:52:49;;;;;;;2.63;2.43;;;4.10;99.90;;;;;;5097085;28;20199;-69
2022/01/05 03:55:15;;;;;;;3.23;2.93;;;4.10;99.90;;;;;;5097142;28;20720;-71
2022/01/05 03:57:42;;;;;;;3.33;2.87;;;4.10;99.90;;;;;;5096872;28;20281;-71
2022/01/05 04:00:10;;;;;;;3.70;2.70;;;4.10;99.90;;;;;;5097080;28;20193;-69
2022/01/05 04:02:38;;;;;;;2.73;2.53;;;4.10;99.90;;;;;;5103304;28;20621;-71
2022/01/05 04:05:05;;;;;;;2.83;2.63;;;4.20;99.90;;;;;;5104668;28;20196;-70
2022/01/05 04:07:32;;;;;;;3.00;2.70;;;4.20;99.90;;;;;;5104460;28;20225;-72
2022/01/05 04:09:59;;;;;;;2.57;2.37;;;4.20;99.90;;;;;;5103672;28;20555;-71
2022/01/05 04:12:26;;;;;;;3.60;2.20;;;4.20;99.90;;;;;;5103514;28;20197;-70
2022/01/05 04:14:53;;;;;;;2.50;2.10;;;4.20;99.90;;;;;;5103448;28;20537;-71
2022/01/05 04:17:21;;;;;;;2.00;1.80;;;4.10;99.90;;;;;;5097439;28;20236;-71
2022/01/05 04:19:49;;;;;;;2.27;1.73;;;4.20;99.90;;;;;;5097438;28;20236;-70
2022/01/05 04:22:16;;;;;;;1.70;1.60;;;4.20;99.90;;;;;;5098086;28;20197;-70
2022/01/05 04:24:42;;;;;;;1.80;1.50;;;4.20;99.90;;;;;;5096607;28;20220;-70
2022/01/05 04:27:09;;;;;;;1.50;1.37;;;4.30;99.90;;;;;;5096034;28;20203;-70
2022/01/05 04:29:36;;;;;;;2.07;1.40;;;4.20;99.90;;;;;;5096012;28;20242;-70
2022/01/05 04:32:03;;;;;;;1.60;1.47;;;4.30;99.90;;;;;;5095797;28;20252;-70
2022/01/05 04:34:30;;;;;;;1.80;1.70;;;4.30;99.90;;;;;;5095554;28;20722;-70
2022/01/05 04:36:58;;;;;;;2.80;1.60;;;4.30;99.90;;;;;;5096088;28;20246;-70
2022/01/05 04:39:25;;;;;;;1.53;1.40;;;4.30;99.90;;;;;;5096360;28;20198;-70
2022/01/05 04:41:51;;;;;;;1.50;1.40;;;4.30;99.90;;;;;;5095648;28;20250;-70
2022/01/05 04:44:18;;;;;;;1.50;1.40;;;4.30;99.90;;;;;;5095381;28;20196;-70
2022/01/05 04:46:45;;;;;;;1.67;1.57;;;4.30;99.90;;;;;;5095708;28;20254;-70
2022/01/05 04:49:11;;;;;;;1.53;1.40;;;4.40;99.90;;;;;;5095354;28;20249;-70
2022/01/05 04:51:39;;;;;;;1.93;1.57;;;4.40;99.90;;;;;;5095585;28;20206;-69
2022/01/05 04:54:07;;;;;;;1.40;1.30;;;4.40;99.90;;;;;;5095481;28;20203;-69
2022/01/05 04:56:33;;;;;;;1.60;1.33;;;4.40;99.90;;;;;;5095620;28;20204;-69
2022/01/05 04:59:00;;;;;;;2.50;1.33;;;4.40;99.90;;;;;;5095154;28;20660;-69
2022/01/05 05:01:28;;;;;;;1.50;1.33;;;4.30;99.90;;;;;;5095504;28;20634;-70
2022/01/05 05:03:55;;;;;;;2.33;1.50;;;4.30;99.90;;;;;;5094981;28;20202;-69
2022/01/05 05:06:22;;;;;;;2.03;1.60;;;4.30;99.90;;;;;;5095293;28;20597;-70
2022/01/05 05:08:49;;;;;;;3.40;1.50;;;4.30;99.90;;;;;;5095189;28;20207;-70
2022/01/05 05:11:17;;;;;;;1.73;1.53;;;4.30;99.90;;;;;;5095293;28;20549;-70
2022/01/05 05:13:44;;;;;;;2.60;1.50;;;4.30;99.90;;;;;;5095132;28;20203;-70
2022/01/05 05:16:11;;;;;;;1.60;1.50;;;4.30;99.90;;;;;;5096948;28;20669;-72
2022/01/05 05:18:38;;;;;;;2.93;1.67;;;4.40;99.90;;;;;;5100765;28;20282;-70
2022/01/05 05:21:04;;;;;;;1.37;1.23;;;4.40;99.90;;;;;;5101688;28;20243;-70
2022/01/05 05:23:31;;;;;;;1.73;1.43;;;4.40;99.90;;;;;;5102685;28;20198;-71
2022/01/05 05:25:58;;;;;;;1.83;1.40;;;4.40;99.90;;;;;;5103185;28;20208;-70
2022/01/05 05:28:26;;;;;;;1.43;1.20;;;4.40;99.90;;;;;;5103591;28;20202;-70
2022/01/05 05:30:53;;;;;;;2.30;1.30;;;4.40;99.90;;;;;;5101185;28;20252;-70
2022/01/05 05:33:19;;;;;;;1.30;1.20;;;4.40;99.90;;;;;;5095237;28;20198;-70
2022/01/05 05:35:46;;;;;;;1.77;1.10;;;4.40;99.90;;;;;;5095089;28;20265;-71
2022/01/05 05:38:14;;;;;;;1.27;1.10;;;4.40;99.90;;;;;;5094832;28;20222;-70
2022/01/05 05:40:42;;;;;;;1.23;1.13;;;4.30;99.90;;;;;;5094618;28;20587;-70
2022/01/05 05:43:08;;;;;;;1.57;1.10;;;4.30;99.90;;;;;;5094860;28;20253;-70
2022/01/05 05:45:36;;;;;;;1.10;1.03;;;4.30;99.90;;;;;;5093991;28;20241;-70
2022/01/05 05:48:03;;;;;;;1.33;1.23;;;4.30;99.90;;;;;;5094381;28;20196;-71
2022/01/05 05:50:30;;;;;;;1.00;1.00;;;4.20;99.90;;;;;;5094439;28;20198;-70
2022/01/05 05:52:57;;;;;;;1.00;1.00;;;4.20;99.90;;;;;;5094198;28;20288;-70
2022/01/05 05:55:24;;;;;;;1.10;1.00;;;4.20;99.90;;;;;;5094304;28;20200;-70
2022/01/05 05:57:51;;;;;;;2.73;1.10;;;4.20;99.90;;;;;;5094186;28;20297;-70
2022/01/05 06:00:18;;;;;;;0.93;0.90;;;4.10;99.90;;;;;;5094361;28;20202;-70
2022/01/05 06:02:46;;;;;;;1.17;0.83;;;4.20;99.90;;;;;;5093985;28;20229;-71
2022/01/05 06:05:13;;;;;;;0.87;0.87;;;4.20;99.90;;;;;;5094294;28;20201;-70
2022/01/05 06:07:39;;;;;;;0.90;0.90;;;4.10;99.90;;;;;;5094051;28;20813;-70
2022/01/05 06:10:07;;;;;;;2.03;1.00;;;4.00;99.90;;;;;;5093733;28;20254;-71
2022/01/05 06:12:34;;;;;;;1.40;0.83;;;3.30;99.90;;;;;;5094386;28;20200;-69
2022/01/05 06:15:00;;;;;;;2.40;1.20;;;2.60;99.90;;;;;;5093937;28;20249;-69
2022/01/05 06:17:27;;;;;;;1.47;1.10;;;2.30;99.90;;;;;;5094114;28;20224;-70
2022/01/05 06:19:55;;;;;;;1.50;1.40;;;2.10;99.90;;;;;;5093986;28;20208;-69
2022/01/05 06:22:22;;;;;;;1.53;1.40;;;1.90;99.90;;;;;;5093956;28;20594;-70
2022/01/05 06:24:48;;;;;;;3.47;2.37;;;1.70;99.90;;;;;;5093988;28;20644;-70
2022/01/05 06:27:15;;;;;;;3.23;2.40;;;1.60;99.90;;;;;;5094007;28;20621;-70
2022/01/05 06:29:42;;;;;;;3.40;2.50;;;1.70;99.90;;;;;;5093876;28;20204;-70
2022/01/05 06:32:09;;;;;;;2.60;2.37;;;1.70;99.90;;;;;;5093963;28;20633;-70
2022/01/05 06:34:36;;;;;;;4.03;2.43;;;1.70;99.90;;;;;;5093806;28;20265;-70
2022/01/05 06:37:04;;;;;;;3.77;2.37;;;1.80;99.90;;;;;;5093624;28;20242;-70
2022/01/05 06:39:31;;;;;;;2.63;1.97;;;1.70;99.90;;;;;;5093740;28;20728;-70
2022/01/05 06:41:58;;;;;;;1.73;1.50;;;1.70;99.90;;;;;;5093669;28;20598;-70
2022/01/05 06:44:24;;;;;;;1.83;1.70;;;1.80;99.90;;;;;;5093711;28;20200;-69
2022/01/05 06:46:51;;;;;;;2.27;2.07;;;1.70;99.90;;;;;;5093606;28;20200;-69
2022/01/05 06:49:19;;;;;;;2.70;1.90;;;1.60;99.90;;;;;;5093832;28;20200;-70
2022/01/05 06:51:45;;;;;;;2.70;2.50;;;1.60;99.90;;;;;;5093783;28;20283;-69
2022/01/05 06:54:13;;;;;;;3.03;2.60;;;1.70;99.90;;;;;;5093811;28;20200;-70
2022/01/05 06:56:40;;;;;;;4.80;2.77;;;1.60;99.90;;;;;;5095229;28;20208;-69
2022/01/05 06:59:07;;;;;;;3.73;3.00;;;1.60;99.90;;;;;;5104737;28;20231;-70
2022/01/05 07:01:34;;;;;;;3.63;3.33;;;1.60;99.90;;;;;;5101175;28;20718;-82
2022/01/05 07:04:02;;;;;;;5.73;3.40;;;1.60;99.90;;;;;;5098416;28;20590;-70
2022/01/05 07:06:28;;;;;;;5.63;3.33;;;1.60;99.90;;;;;;5098421;28;20196;-69
2022/01/05 07:08:55;;;;;;;5.07;3.30;;;1.60;99.90;;;;;;5098826;28;20246;-70
2022/01/05 07:11:23;;;;;;;6.77;3.07;;;1.70;99.90;;;;;;5097812;28;20291;-71
2022/01/05 07:13:50;;;;;;;5.60;3.47;;;1.70;99.90;;;;;;5098217;28;20200;-70
2022/01/05 07:16:17;;;;;;;4.00;3.30;;;1.70;99.90;;;;;;5097236;28;20207;-71
2022/01/05 07:18:44;;;;;;;3.73;2.53;;;1.70;99.90;;;;;;5097635;28;20228;-71
2022/01/05 07:21:10;;;;;;;5.37;2.70;;;1.70;99.90;;;;;;5097347;28;20748;-70
2022/01/05 07:23:37;;;;;;;3.97;2.93;;;1.70;99.90;;;;;;5097393;28;20564;-70
2022/01/05 07:26:03;;;;;;;8.20;2.97;;;1.70;99.90;;;;;;5097642;28;20218;-71
2022/01/05 07:28:31;;;;;;;5.43;2.43;;;1.60;99.90;;;;;;5097089;28;20204;-70
2022/01/05 07:30:58;;;;;;;5.97;2.70;;;1.60;99.90;;;;;;5097176;28;20242;-70
2022/01/05 07:33:26;;;;;;;4.97;2.80;;;1.60;99.90;;;;;;5097407;28;20196;-70
2022/01/05 07:35:53;;;;;;;6.37;2.80;;;1.60;99.90;;;;;;5097216;28;20200;-71
2022/01/05 07:38:20;;;;;;;4.77;3.13;;;1.50;99.90;;;;;;5097063;28;20258;-71
2022/01/05 07:40:46;;;;;;;7.57;3.17;;;1.50;99.90;;;;;;5097351;28;20203;-70
2022/01/05 07:43:13;;;;;;;6.43;3.10;;;1.50;99.90;;;;;;5097621;28;20200;-71
2022/01/05 07:45:41;;;;;;;4.73;3.03;;;1.50;99.90;;;;;;5097101;28;20226;-71
2022/01/05 07:48:08;;;;;;;5.97;3.20;;;1.50;99.90;;;;;;5097125;28;20614;-71
2022/01/05 07:50:35;;;;;;;5.43;3.50;;;1.50;99.90;;;;;;5097094;28;20201;-70
2022/01/05 07:53:04;;;;;;;4.27;3.27;;;1.50;99.90;;;;;;5096897;28;20743;-71
2022/01/05 07:55:31;;;;;;;5.43;3.87;;;1.50;99.90;;;;;;5096832;28;20196;-71
2022/01/05 07:57:58;;;;;;;4.97;3.07;;;1.50;99.90;;;;;;5096694;28;20224;-71
2022/01/05 08:00:25;;;;;;;8.10;3.50;;;1.40;99.90;;;;;;5096462;28;20541;-70
2022/01/05 08:02:53;;;;;;;9.67;4.33;;;1.40;99.90;;;;;;5096786;28;20232;-71
2022/01/05 08:05:20;;;;;;;8.23;4.73;;;1.40;99.90;;;;;;5097341;28;20602;-71
2022/01/05 08:07:47;;;;;;;6.33;4.13;;;1.50;99.90;;;;;;5107402;28;20231;-71
2022/01/05 08:10:14;;;;;;;7.30;4.87;;;1.50;99.90;;;;;;5096083;28;20719;-71
2022/01/05 08:12:41;;;;;;;11.47;4.60;;;1.50;99.90;;;;;;5096495;28;20201;-70
2022/01/05 08:15:09;;;;;;;10.20;4.97;;;1.50;99.90;;;;;;5096668;28;20196;-70
2022/01/05 08:17:36;;;;;;;12.20;5.60;;;1.50;99.90;;;;;;5097160;28;20196;-70
2022/01/05 08:20:06;;;;;;;9.10;4.60;;;1.50;99.90;;;;;;5116868;28;20196;-71
2022/01/05 08:22:33;;;;;;;9.20;6.10;;;1.50;99.90;;;;;;5116630;28;20195;-70
2022/01/05 08:25:00;;;;;;;12.40;5.80;;;1.50;99.90;;;;;;5110421;28;20184;-71
2022/01/05 08:27:26;;;;;;;7.37;4.90;;;1.50;99.90;;;;;;5095990;28;20200;-70
2022/01/05 08:29:53;;;;;;;10.33;4.80;;;1.50;99.90;;;;;;5095543;28;20201;-69
2022/01/05 08:32:20;;;;;;;9.70;5.13;;;1.50;99.90;;;;;;5096404;28;20197;-70
2022/01/05 08:34:46;;;;;;;9.93;5.97;;;1.50;99.90;;;;;;5096280;28;20606;-70
2022/01/05 08:37:15;;;;;;;11.13;5.80;;;1.60;99.90;;;;;;5096301;28;20250;-70
2022/01/05 08:39:43;;;;;;;9.33;5.43;;;1.50;99.90;;;;;;5096096;28;20250;-70
2022/01/05 08:42:09;;;;;;;9.33;5.70;;;1.60;99.90;;;;;;5096117;28;20230;-70
2022/01/05 08:44:36;;;;;;;10.80;5.30;;;1.60;99.90;;;;;;5096186;28;20203;-70
2022/01/05 08:47:05;;;;;;;10.23;5.17;;;1.60;99.90;;;;;;5095716;28;20265;-70
2022/01/05 08:49:31;;;;;;;9.87;4.93;;;1.60;99.90;;;;;;5095687;28;20633;-70
2022/01/05 08:51:58;;;;;;;12.37;5.47;;;1.60;99.90;;;;;;5095747;28;20196;-70
2022/01/05 08:54:26;;;;;;;9.13;4.87;;;1.60;99.90;;;;;;5095617;28;20205;-70
2022/01/05 08:56:54;;;;;;;12.07;5.50;;;1.60;99.90;;;;;;5095651;28;20572;-70
2022/01/05 08:59:21;;;;;;;9.13;5.13;;;1.60;99.90;;;;;;5095293;28;20687;-70
2022/01/05 09:01:48;;;;;;;10.77;5.27;;;1.60;99.90;;;;;;5095223;28;20232;-71
2022/01/05 09:04:14;;;;;;;13.30;5.23;;;1.50;99.90;;;;;;5095677;28;20222;-70
2022/01/05 09:06:42;;;;;;;11.97;4.07;;;1.50;99.90;;;;;;5095361;28;20196;-68
2022/01/05 09:09:08;;;;;;;7.87;3.87;;;1.50;99.90;;;;;;5102433;28;20192;-69
2022/01/05 09:11:37;;;;;;;4.10;3.20;;;1.30;99.90;;;;;;5116475;28;20199;-69
2022/01/05 09:14:04;;;;;;;5.80;2.93;;;1.10;99.90;;;;;;5115616;28;20202;-70
2022/01/05 09:16:30;;;;;;;5.83;3.10;;;1.00;99.90;;;;;;5115767;28;20231;-70
2022/01/05 09:18:57;;;;;;;6.67;3.33;;;1.00;99.90;;;;;;5114712;28;20257;-70
2022/01/05 09:21:24;;;;;;;6.70;3.70;;;1.00;99.90;;;;;;5115556;28;20196;-69
2022/01/05 09:23:51;;;;;;;7.70;3.80;;;1.00;99.90;;;;;;5115243;28;20195;-69
2022/01/05 09:26:18;;;;;;;8.17;3.67;;;1.00;99.90;;;;;;5098541;28;20597;-70
2022/01/05 09:28:46;;;;;;;6.93;3.67;;;1.20;99.90;;;;;;5095337;28;20192;-69
2022/01/05 09:31:13;;;;;;;5.07;3.90;;;1.40;99.90;;;;;;5095095;28;20259;-70
2022/01/05 09:33:40;;;;;;;8.07;4.10;;;1.60;99.90;;;;;;5105569;28;20619;-71
2022/01/05 09:36:13;;;;;;;9.83;4.23;;;1.70;99.90;;;;;;5115478;28;20253;-70
2022/01/05 09:44:10;;;;;;;10.83;3.60;;;1.40;99.90;;;;;;5118374;28;20237;-70
2022/01/05 09:46:47;;;;;;;8.83;4.03;;;1.20;99.90;;;;;;5121439;28;20233;-70
2022/01/05 09:49:22;;;;;;;3.73;2.73;;;1.00;99.90;;;;;;5121913;28;20294;-71
2022/01/05 09:51:52;;;;;;;5.03;3.67;;;1.00;99.90;;;;;;5121197;28;20203;-71
2022/01/05 09:54:19;;;;;;;5.37;3.50;;;1.10;99.90;;;;;;5120431;28;20365;-71
2022/01/05 09:56:47;;;;;;;7.43;3.70;;;1.10;99.90;;;;;;5120297;28;20200;-71
2022/01/05 09:59:17;;;;;;;6.10;3.90;;;1.20;99.90;;;;;;5099357;28;20224;-71
2022/01/05 10:01:44;;;;;;;6.73;3.73;;;1.10;99.90;;;;;;5115298;28;20230;-70
2022/01/05 10:04:13;;;;;;;6.83;4.10;;;1.10;99.90;;;;;;5115139;28;20673;-70
2022/01/05 10:06:42;;;;;;;8.60;4.33;;;1.20;99.90;;;;;;5114613;28;20220;-70
2022/01/05 10:09:09;;;;;;;4.77;3.40;;;1.30;99.90;;;;;;5114356;28;20597;-70
2022/01/05 10:11:36;;;;;;;8.13;5.87;;;1.50;99.90;;;;;;5114295;28;20643;-71
2022/01/05 10:14:03;;;;;;;4.47;2.80;;;1.70;99.90;;;;;;5115045;28;20248;-71
2022/01/05 10:16:31;;;;;;;8.47;4.07;;;1.80;99.90;;;;;;5114826;28;20265;-72
2022/01/05 10:18:58;;;;;;;5.67;2.67;;;2.30;99.90;;;;;;5114511;28;20583;-71
2022/01/05 10:21:32;;;;;;;8.97;4.67;;;2.80;99.90;;;;;;5114280;28;20220;-71
2022/01/05 10:23:59;;;;;;;4.13;2.67;;;3.50;99.90;;;;;;5114228;28;20245;-71
2022/01/05 10:26:28;;;;;;;8.27;3.93;;;3.50;99.90;;;;;;5096455;28;20252;-71
2022/01/05 10:28:57;;;;;;;10.30;5.60;;;3.60;99.90;;;;;;5094124;28;20257;-71
2022/01/05 10:31:26;;;;;;;8.70;3.50;;;4.50;99.90;;;;;;5093657;28;20697;-75
2022/01/05 10:33:54;;;;;;;4.87;2.63;;;3.20;99.90;;;;;;5094509;28;20207;-71
2022/01/05 10:36:21;;;;;;;4.23;2.70;;;3.70;99.90;;;;;;5094121;28;20594;-71
2022/01/05 10:38:52;;;;;;;9.50;2.77;;;3.50;99.90;;;;;;5093711;28;20217;-72
2022/01/05 10:41:21;;;;;;;10.93;4.53;;;3.90;99.90;;;;;;5094231;28;20197;-72
2022/01/05 10:44:07;;;;;;;5.20;2.90;;;3.60;99.90;;;;;;5093914;28;20234;-71
2022/01/05 10:46:34;;;;;;;6.47;2.20;;;2.80;99.90;;;;;;5093730;28;20200;-71
2022/01/05 10:49:04;;;;;;;5.60;2.67;;;2.30;99.90;;;;;;5094194;28;20226;-72
2022/01/05 10:51:32;;;;;;;6.00;2.43;;;2.20;99.90;;;;;;5094585;28;20196;-72
2022/01/05 10:54:11;;;;;;;5.33;2.10;;;2.00;99.90;;;;;;5093663;28;20199;-72
2022/01/05 10:56:38;;;;;;;7.77;2.37;;;1.80;99.90;;;;;;5093478;28;20230;-72
2022/01/05 10:59:05;;;;;;;5.07;2.30;;;2.70;99.90;;;;;;5093414;28;20235;-72
2022/01/05 11:01:32;;;;;;;5.00;2.17;;;3.10;99.90;;;;;;5092819;28;20232;-72
2022/01/05 11:03:59;;;;;;;5.17;2.03;;;3.50;99.90;;;;;;5093586;28;20204;-72
2022/01/05 11:06:27;;;;;;;2.90;1.90;;;4.60;99.90;;;;;;5093456;28;20195;-72
2022/01/05 11:08:56;;;;;;;5.40;2.30;;;4.40;99.90;;;;;;5093482;28;20265;-72
2022/01/05 11:11:36;;;;;;;5.63;2.30;;;3.70;99.90;;;;;;5093277;28;20838;-71
2022/01/05 11:14:04;;;;;;;4.27;2.23;;;2.80;99.90;;;;;;5093191;28;20200;-71
2022/01/05 11:16:31;;;;;;;4.43;2.37;;;2.90;99.90;;;;;;5093349;28;20200;-71
2022/01/05 11:19:19;;;;;;;5.93;2.50;;;2.00;99.90;;;;;;5094526;28;20729;-71
2022/01/05 11:21:59;;;;;;;5.00;2.13;;;2.10;99.90;;;;;;5098691;28;20196;-71
2022/01/05 11:24:27;;;;;;;3.30;1.97;;;4.50;99.90;;;;;;5098773;28;20247;-72
2022/01/05 11:26:54;;;;;;;5.07;1.90;;;4.90;99.90;;;;;;5098118;28;20689;-71
2022/01/05 11:29:21;;;;;;;5.10;2.17;;;6.10;99.90;;;;;;5097977;28;20226;-71
2022/01/05 11:31:48;;;;;;;4.60;1.93;;;6.20;99.90;;;;;;5095181;28;20254;-72
2022/01/05 11:34:15;;;;;;;5.83;2.07;;;6.10;99.90;;;;;;5094424;28;20249;-71
2022/01/05 11:36:44;;;;;;;4.60;2.10;;;6.60;99.90;;;;;;5094403;28;20246;-72
2022/01/05 11:39:12;;;;;;;3.30;1.97;;;6.20;99.90;;;;;;5093592;28;20220;-71
2022/01/05 11:41:42;;;;;;;4.17;2.10;;;6.40;99.90;;;;;;5093798;28;20219;-72
2022/01/05 11:44:09;;;;;;;5.73;2.30;;;5.10;99.90;;;;;;5097452;28;20196;-72
2022/01/05 11:46:37;;;;;;;5.57;2.07;;;5.90;99.90;;;;;;5096892;28;20222;-72
2022/01/05 11:49:07;;;;;;;4.47;2.00;;;5.20;99.90;;;;;;5097373;28;20208;-72
2022/01/05 11:51:48;;;;;;;7.13;2.77;;;4.00;99.90;;;;;;5097002;28;20223;-72
2022/01/05 11:54:18;;;;;;;5.17;2.13;;;3.50;99.90;;;;;;5097399;28;20204;-72
2022/01/05 11:56:47;;;;;;;5.37;2.60;;;3.30;99.90;;;;;;5097238;28;20211;-72
2022/01/05 11:59:29;;;;;;;6.37;2.67;;;3.50;99.90;;;;;;5096757;28;20575;-71
2022/01/05 12:02:07;;;;;;;4.60;2.10;;;3.80;99.90;;;;;;5096344;28;20273;-71
2022/01/05 12:04:57;;;;;;;6.33;2.70;;;4.40;99.90;;;;;;5096501;28;20533;-71
2022/01/05 12:07:36;;;;;;;5.20;2.40;;;4.20;99.90;;;;;;5096756;28;20238;-71
2022/01/05 12:10:18;;;;;;;3.37;1.80;;;3.50;99.90;;;;;;5097533;28;20203;-71
2022/01/05 12:12:59;;;;;;;6.93;2.30;;;3.70;99.90;;;;;;5097359;28;20250;-71
2022/01/05 12:15:45;;;;;;;4.53;2.70;;;2.90;99.90;;;;;;5097208;28;20575;-72
2022/01/05 12:18:20;;;;;;;3.77;2.07;;;3.10;99.90;;;;;;5096777;28;20295;-71
2022/01/05 12:20:47;;;;;;;4.10;2.10;;;5.00;99.90;;;;;;5096130;28;20224;-72
2022/01/05 12:23:19;;;;;;;4.03;2.17;;;4.40;99.90;;;;;;5096860;28;20203;-72
2022/01/05 12:26:16;;;;;;;6.07;2.20;;;3.50;99.90;;;;;;5096820;28;20194;-71
2022/01/05 12:28:52;;;;;;;6.70;2.33;;;2.80;99.90;;;;;;5096483;28;20666;-72
2022/01/05 12:31:19;;;;;;;5.53;2.27;;;2.00;99.90;;;;;;5096391;28;20600;-71
2022/01/05 12:33:48;;;;;;;8.03;2.57;;;2.00;99.90;;;;;;5096128;28;20265;-71
2022/01/05 12:36:34;;;;;;;8.23;2.63;;;1.90;99.90;;;;;;5095991;28;20223;-71
2022/01/05 12:39:01;;;;;;;7.27;2.40;;;1.80;99.90;;;;;;5096000;28;20291;-71
2022/01/05 12:41:34;;;;;;;9.20;2.67;;;1.70;99.90;;;;;;5103605;28;20208;-72
2022/01/05 12:44:22;;;;;;;6.60;2.53;;;1.70;99.90;;;;;;5094660;28;20208;-71
2022/01/05 12:46:50;;;;;;;6.20;2.23;;;1.80;99.90;;;;;;5077371;28;20200;-72
2022/01/05 12:49:17;;;;;;;3.23;2.13;;;3.30;99.90;;;;;;5093551;28;20652;-71
2022/01/05 12:51:53;;;;;;;5.07;2.40;;;2.30;99.90;;;;;;5093652;28;20200;-72
2022/01/05 12:54:23;;;;;;;7.43;1.93;;;2.60;99.90;;;;;;5092752;28;20200;-71
2022/01/05 12:56:53;;;;;;;5.67;2.60;;;2.30;99.90;;;;;;5093231;28;20199;-70
2022/01/05 12:59:22;;;;;;;9.80;2.40;;;2.30;99.90;;;;;;5094899;28;20357;-72
2022/01/05 13:01:51;;;;;;;6.17;2.17;;;1.90;99.90;;;;;;5094749;28;20228;-71
2022/01/05 13:04:19;;;;;;;6.23;1.73;;;2.20;99.90;;;;;;5094605;28;20204;-71
2022/01/05 13:06:46;;;;;;;4.23;2.10;;;2.20;99.90;;;;;;5094461;28;20272;-71